Terminal Aerodrome Forecast
Issued by NWS

Home | Current Version | Previous Version | Text Only | Print | Product List | Glossary On
Versions: 1 2 3 4 5 6 7 8 9 10 11 12 13 14 15 16 17 18 19 20
000
FTUS43 KLSX 252000 AAB
TAFSUS
TAF AMD
KSUS 252038Z 2521/2618 02012KT 5SM -SHRA VCTS OVC020CB
      TEMPO 2521/2522 2SM -SHRA OVC018
     FM252200 34012KT 5SM -RA BR OVC012
     FM260100 01012KT P6SM OVC007
     FM261300 05010KT P6SM BKN035=

USA.gov is the U.S. government's official web portal to all federal, state and local government web resources and services.